Time;durP1;ratioP1;P1;durP2;ratioP2;P2;SDS_P1;SDS_P2;PMS_P1;PMS_P2;Temp;Humidity;BMP_temperature;BMP_pressure;BME280_temperature;BME280_humidity;BME280_pressure;Samples;Min_cycle;Max_cycle;Signal;HPM_P1;HPM_P2
2022/08/06 00:01:10;;;;;;;12.43;5.70;;;;;;;;;;5008765;28;20092;-48
2022/08/06 00:03:56;;;;;;;7.82;5.32;;;;;;;;;;5004513;28;20057;-49
2022/08/06 00:06:42;;;;;;;5.20;4.45;;;;;;;;;;5008046;28;20034;-48
2022/08/06 00:09:30;;;;;;;9.80;5.53;;;;;;;;;;5007792;28;20465;-47
2022/08/06 00:12:16;;;;;;;8.05;4.97;;;;;;;;;;5004887;28;20045;-48
2022/08/06 00:15:06;;;;;;;7.43;4.95;;;;;;;;;;5006729;28;20030;-48
2022/08/06 00:17:52;;;;;;;9.07;4.68;;;;;;;;;;5006565;28;20049;-48
2022/08/06 00:20:38;;;;;;;5.32;4.15;;;;;;;;;;5006681;28;20032;-47
2022/08/06 00:23:24;;;;;;;5.72;4.20;;;;;;;;;;5005313;28;20058;-49
2022/08/06 00:26:10;;;;;;;7.43;4.28;;;;;;;;;;5007936;28;20037;-48
2022/08/06 00:28:56;;;;;;;8.27;4.60;;;;;;;;;;5006650;28;20119;-50
2022/08/06 00:31:41;;;;;;;7.93;4.28;;;;;;;;;;5007240;28;20052;-48
2022/08/06 00:34:27;;;;;;;11.93;4.20;;;;;;;;;;5005186;28;20033;-53
2022/08/06 00:37:13;;;;;;;5.45;4.15;;;;;;;;;;5006503;28;20030;-53
2022/08/06 00:39:59;;;;;;;4.50;3.63;;;;;;;;;;5006720;28;20099;-49
2022/08/06 00:42:45;;;;;;;5.43;3.55;;;;;;;;;;5006604;28;20038;-54
2022/08/06 00:45:32;;;;;;;5.80;3.65;;;;;;;;;;5006287;28;20075;-48
2022/08/06 00:48:17;;;;;;;9.77;3.70;;;;;;;;;;5005741;28;20038;-51
2022/08/06 00:51:03;;;;;;;7.18;3.70;;;;;;;;;;5006951;28;20026;-48
2022/08/06 00:53:51;;;;;;;10.55;3.83;;;;;;;;;;5008962;28;20034;-49
2022/08/06 00:56:36;;;;;;;7.28;3.80;;;;;;;;;;5009844;28;20792;-47
2022/08/06 00:59:22;;;;;;;11.30;4.25;;;;;;;;;;5006088;28;20054;-48
2022/08/06 01:02:08;;;;;;;7.68;3.35;;;;;;;;;;5004944;28;20038;-51
2022/08/06 01:04:54;;;;;;;6.10;3.70;;;;;;;;;;5008379;28;20536;-50
2022/08/06 01:07:39;;;;;;;7.22;4.18;;;;;;;;;;5006858;28;20041;-48
2022/08/06 01:10:25;;;;;;;5.97;3.42;;;;;;;;;;5005665;28;20034;-52
2022/08/06 01:13:11;;;;;;;13.27;3.70;;;;;;;;;;5005262;28;20034;-49
2022/08/06 01:16:12;;;;;;;6.63;3.55;;;;;;;;;;5006417;28;20033;-52
2022/08/06 01:19:04;;;;;;;5.88;3.40;;;;;;;;;;5002969;28;20048;-49
2022/08/06 01:21:55;;;;;;;3.92;2.47;;;;;;;;;;5005388;28;20041;-48
2022/08/06 01:24:53;;;;;;;6.63;2.67;;;;;;;;;;5001346;28;20030;-51
2022/08/06 01:27:55;;;;;;;10.80;2.72;;;;;;;;;;5006193;28;20443;-48
2022/08/06 01:30:47;;;;;;;4.30;2.72;;;;;;;;;;5005629;28;20038;-47
2022/08/06 01:33:44;;;;;;;4.00;2.80;;;;;;;;;;5006405;28;20116;-47
2022/08/06 01:36:49;;;;;;;7.60;3.40;;;;;;;;;;5002683;28;20080;-47
2022/08/06 01:39:37;;;;;;;4.50;2.58;;;;;;;;;;5006447;28;20034;-47
2022/08/06 01:42:25;;;;;;;7.13;3.03;;;;;;;;;;5004164;28;20490;-52
2022/08/06 01:45:17;;;;;;;5.13;3.00;;;;;;;;;;5001348;28;20034;-47
2022/08/06 01:48:06;;;;;;;5.88;2.90;;;;;;;;;;5005720;28;20124;-52
2022/08/06 01:50:55;;;;;;;3.45;2.42;;;;;;;;;;5006350;28;20049;-48
2022/08/06 01:53:41;;;;;;;3.35;2.85;;;;;;;;;;5005875;28;20026;-47
2022/08/06 01:56:31;;;;;;;7.93;2.67;;;;;;;;;;5003071;28;20113;-48
2022/08/06 01:59:21;;;;;;;8.35;3.10;;;;;;;;;;5003941;28;20148;-54
2022/08/06 02:02:10;;;;;;;3.88;2.45;;;;;;;;;;5001831;28;20034;-51
2022/08/06 02:05:00;;;;;;;8.43;2.80;;;;;;;;;;5003861;28;20143;-51
2022/08/06 02:07:50;;;;;;;3.15;2.50;;;;;;;;;;5004031;28;20132;-52
2022/08/06 02:10:36;;;;;;;6.07;2.85;;;;;;;;;;5004929;28;20034;-49
2022/08/06 02:13:23;;;;;;;3.20;2.65;;;;;;;;;;5002876;28;20026;-55
2022/08/06 02:16:10;;;;;;;10.38;2.80;;;;;;;;;;5004562;28;20032;-55
2022/08/06 02:18:59;;;;;;;3.63;2.55;;;;;;;;;;5007001;28;20041;-52
2022/08/06 02:21:46;;;;;;;2.47;2.08;;;;;;;;;;5004340;28;20547;-55
2022/08/06 02:24:34;;;;;;;5.20;2.50;;;;;;;;;;5003967;28;20582;-51
2022/08/06 02:27:21;;;;;;;7.10;2.63;;;;;;;;;;5003805;28;20033;-50
2022/08/06 02:30:08;;;;;;;5.30;2.75;;;;;;;;;;5006236;28;20553;-51
2022/08/06 02:32:53;;;;;;;3.92;2.80;;;;;;;;;;5007387;28;20030;-48
2022/08/06 02:35:46;;;;;;;5.40;3.10;;;;;;;;;;5004723;28;20036;-51
2022/08/06 02:38:41;;;;;;;7.07;3.63;;;;;;;;;;5001284;28;20099;-50
2022/08/06 02:41:37;;;;;;;6.45;2.92;;;;;;;;;;5006441;28;20101;-51
2022/08/06 02:44:38;;;;;;;2.88;2.58;;;;;;;;;;5003537;28;20061;-53
2022/08/06 02:47:37;;;;;;;4.00;2.67;;;;;;;;;;5004844;28;20030;-55
2022/08/06 02:50:34;;;;;;;11.23;2.45;;;;;;;;;;5001787;28;20052;-51
2022/08/06 02:53:24;;;;;;;3.42;2.30;;;;;;;;;;5003068;28;20029;-52
2022/08/06 02:56:13;;;;;;;4.20;2.97;;;;;;;;;;5003795;28;20085;-50
2022/08/06 02:59:01;;;;;;;8.98;2.60;;;;;;;;;;5006928;28;20053;-55
2022/08/06 03:01:51;;;;;;;3.28;2.35;;;;;;;;;;5003274;28;20034;-51
2022/08/06 03:04:40;;;;;;;3.80;2.40;;;;;;;;;;5003537;28;20033;-56
2022/08/06 03:07:28;;;;;;;8.60;2.15;;;;;;;;;;5006123;28;20030;-52
2022/08/06 03:10:18;;;;;;;7.88;2.90;;;;;;;;;;5005096;28;20399;-50
2022/08/06 03:13:05;;;;;;;7.93;3.03;;;;;;;;;;5001825;28;20030;-49
2022/08/06 03:15:53;;;;;;;9.85;2.80;;;;;;;;;;5003513;28;20056;-48
2022/08/06 03:18:42;;;;;;;6.90;2.67;;;;;;;;;;5006275;28;20041;-51
2022/08/06 03:21:30;;;;;;;6.60;2.63;;;;;;;;;;5004000;28;20092;-49
2022/08/06 03:24:18;;;;;;;7.03;2.70;;;;;;;;;;5001638;28;20040;-48
2022/08/06 03:27:04;;;;;;;7.25;2.90;;;;;;;;;;5004132;28;20034;-49
2022/08/06 03:29:51;;;;;;;15.02;3.50;;;;;;;;;;5003752;28;20067;-48
2022/08/06 03:32:37;;;;;;;5.60;2.38;;;;;;;;;;5006551;28;20042;-48
2022/08/06 03:35:24;;;;;;;2.83;2.40;;;;;;;;;;5002555;28;20044;-50
2022/08/06 03:38:11;;;;;;;13.50;2.65;;;;;;;;;;5001825;28;20026;-47
2022/08/06 03:40:59;;;;;;;3.70;2.03;;;;;;;;;;5005250;28;20037;-52
2022/08/06 03:43:45;;;;;;;4.57;2.90;;;;;;;;;;5001870;28;20035;-48
2022/08/06 03:46:44;;;;;;;6.72;2.78;;;;;;;;;;5004770;28;20096;-48
2022/08/06 03:49:40;;;;;;;4.05;2.67;;;;;;;;;;5003688;28;20034;-47
2022/08/06 03:52:29;;;;;;;6.35;2.60;;;;;;;;;;5005506;28;20026;-48
2022/08/06 03:55:19;;;;;;;5.80;2.53;;;;;;;;;;5003057;28;20053;-47
2022/08/06 03:58:10;;;;;;;5.88;2.25;;;;;;;;;;5005068;28;20479;-47
2022/08/06 04:01:01;;;;;;;7.85;2.63;;;;;;;;;;5002070;28;22800;-47
2022/08/06 04:03:47;;;;;;;6.28;2.80;;;;;;;;;;5002115;28;20064;-47
2022/08/06 04:06:34;;;;;;;3.53;1.98;;;;;;;;;;5003350;28;20042;-48
2022/08/06 04:09:20;;;;;;;5.70;2.50;;;;;;;;;;5005009;28;20038;-47
2022/08/06 04:12:08;;;;;;;5.35;3.15;;;;;;;;;;5007568;28;20091;-47
2022/08/06 04:14:54;;;;;;;6.05;3.28;;;;;;;;;;5004823;28;20041;-47
2022/08/06 04:17:42;;;;;;;8.38;2.70;;;;;;;;;;5008754;28;20491;-47
2022/08/06 04:20:31;;;;;;;6.57;2.22;;;;;;;;;;5007978;28;20034;-46
2022/08/06 04:23:16;;;;;;;4.53;2.35;;;;;;;;;;5007354;28;20025;-48
2022/08/06 04:26:06;;;;;;;3.30;2.50;;;;;;;;;;5008050;28;20476;-49
2022/08/06 04:28:55;;;;;;;5.75;2.90;;;;;;;;;;5007712;28;20052;-47
2022/08/06 04:31:44;;;;;;;3.63;2.70;;;;;;;;;;5007772;28;20057;-47
2022/08/06 04:34:30;;;;;;;5.90;2.47;;;;;;;;;;5006015;28;20469;-47
2022/08/06 04:37:17;;;;;;;4.72;2.78;;;;;;;;;;5005755;28;20045;-48
2022/08/06 04:40:03;;;;;;;9.50;2.58;;;;;;;;;;5006749;28;20487;-48
2022/08/06 04:42:49;;;;;;;6.45;2.78;;;;;;;;;;5007482;28;20037;-47
2022/08/06 04:45:42;;;;;;;4.15;2.70;;;;;;;;;;5005003;28;20395;-47
2022/08/06 04:48:28;;;;;;;5.88;2.55;;;;;;;;;;5007830;28;20033;-47
2022/08/06 04:51:14;;;;;;;2.95;2.42;;;;;;;;;;5006792;28;20442;-47
2022/08/06 04:54:04;;;;;;;8.18;2.63;;;;;;;;;;5004929;28;20030;-47
2022/08/06 04:56:50;;;;;;;7.32;3.03;;;;;;;;;;5006301;28;20394;-47
2022/08/06 04:59:35;;;;;;;4.10;2.55;;;;;;;;;;5005682;28;20049;-47
2022/08/06 05:02:21;;;;;;;31.45;3.88;;;;;;;;;;5007630;28;20215;-47
2022/08/06 05:05:09;;;;;;;18.05;2.90;;;;;;;;;;5005999;28;20116;-53
2022/08/06 05:07:57;;;;;;;3.72;2.75;;;;;;;;;;5005336;28;20072;-51
2022/08/06 05:10:56;;;;;;;6.25;2.90;;;;;;;;;;5006841;28;20042;-47
2022/08/06 05:13:45;;;;;;;7.38;2.80;;;;;;;;;;5007355;28;20466;-46
2022/08/06 05:16:36;;;;;;;5.55;2.42;;;;;;;;;;5006103;28;20054;-47
2022/08/06 05:19:36;;;;;;;6.88;2.90;;;;;;;;;;5005630;28;20045;-47
2022/08/06 05:22:23;;;;;;;3.65;2.55;;;;;;;;;;5006366;28;20065;-47
2022/08/06 05:25:09;;;;;;;8.18;2.47;;;;;;;;;;5005829;28;20026;-48
2022/08/06 05:27:55;;;;;;;5.93;2.30;;;;;;;;;;5006526;28;20034;-48
2022/08/06 05:30:50;;;;;;;7.97;2.80;;;;;;;;;;5006678;28;20376;-47
2022/08/06 05:33:38;;;;;;;10.38;3.08;;;;;;;;;;5006264;28;20095;-48
2022/08/06 05:36:23;;;;;;;3.00;2.10;;;;;;;;;;5006591;28;20586;-47
2022/08/06 05:39:09;;;;;;;4.30;2.58;;;;;;;;;;5005977;28;20041;-48
2022/08/06 05:41:55;;;;;;;7.30;2.95;;;;;;;;;;5006333;28;20029;-48
2022/08/06 05:44:41;;;;;;;7.78;2.47;;;;;;;;;;5006191;28;20038;-50
2022/08/06 05:47:30;;;;;;;3.13;2.28;;;;;;;;;;5007777;28;20029;-50
2022/08/06 05:50:20;;;;;;;6.50;2.10;;;;;;;;;;5004563;28;20119;-52
2022/08/06 05:53:11;;;;;;;4.57;1.83;;;;;;;;;;5005121;28;20026;-54
2022/08/06 05:56:09;;;;;;;3.25;1.80;;;;;;;;;;5004054;28;20029;-46
2022/08/06 05:58:59;;;;;;;5.05;1.90;;;;;;;;;;5007814;28;20084;-48
2022/08/06 06:01:47;;;;;;;3.67;1.92;;;;;;;;;;5006658;28;20034;-52
2022/08/06 06:04:33;;;;;;;2.92;2.00;;;;;;;;;;5004623;28;20120;-49
2022/08/06 06:07:19;;;;;;;7.78;2.05;;;;;;;;;;5005460;28;20068;-48
2022/08/06 06:10:07;;;;;;;12.57;2.50;;;;;;;;;;5007128;28;20033;-48
2022/08/06 06:12:54;;;;;;;4.75;2.10;;;;;;;;;;5009799;28;20041;-47
2022/08/06 06:15:49;;;;;;;3.78;2.33;;;;;;;;;;5005474;28;20596;-47
2022/08/06 06:18:36;;;;;;;4.75;2.10;;;;;;;;;;5005044;28;20510;-47
2022/08/06 06:21:34;;;;;;;3.55;1.95;;;;;;;;;;5003298;28;20147;-51
2022/08/06 06:24:31;;;;;;;4.75;1.95;;;;;;;;;;5005792;28;20037;-48
2022/08/06 06:27:39;;;;;;;5.57;1.95;;;;;;;;;;5000468;28;20092;-48
2022/08/06 06:30:40;;;;;;;2.83;1.92;;;;;;;;;;5002625;28;20455;-46
2022/08/06 06:33:52;;;;;;;5.53;2.20;;;;;;;;;;5004725;28;20140;-47
2022/08/06 06:36:37;;;;;;;4.40;2.10;;;;;;;;;;5004089;28;20169;-48
2022/08/06 06:39:32;;;;;;;4.13;2.28;;;;;;;;;;5005944;28;20053;-47
2022/08/06 06:42:23;;;;;;;7.18;2.20;;;;;;;;;;5004313;28;20119;-49
2022/08/06 06:45:35;;;;;;;6.63;2.08;;;;;;;;;;5005163;28;20052;-46
2022/08/06 06:48:28;;;;;;;5.40;2.20;;;;;;;;;;5002787;28;20482;-52
2022/08/06 06:51:23;;;;;;;4.72;2.40;;;;;;;;;;5002249;28;20375;-47
2022/08/06 06:54:20;;;;;;;9.32;2.70;;;;;;;;;;5004147;28;20029;-47
2022/08/06 06:57:09;;;;;;;3.72;2.33;;;;;;;;;;5005062;28;20038;-48
2022/08/06 06:59:56;;;;;;;17.50;2.00;;;;;;;;;;5006138;28;20069;-48
2022/08/06 07:02:48;;;;;;;5.43;2.47;;;;;;;;;;5004406;28;20080;-47
2022/08/06 07:05:36;;;;;;;4.88;2.08;;;;;;;;;;5005029;28;20105;-48
2022/08/06 07:08:25;;;;;;;4.18;2.22;;;;;;;;;;5005625;28;20034;-47
2022/08/06 07:11:17;;;;;;;3.55;2.15;;;;;;;;;;5003755;28;20570;-48
2022/08/06 07:14:04;;;;;;;3.53;2.60;;;;;;;;;;5002836;28;20124;-47
2022/08/06 07:16:55;;;;;;;2.72;2.10;;;;;;;;;;5003760;28;20037;-48
2022/08/06 07:19:41;;;;;;;5.32;2.38;;;;;;;;;;5002116;28;20479;-52
2022/08/06 07:22:28;;;;;;;2.60;2.40;;;;;;;;;;5005329;28;20044;-47
2022/08/06 07:25:15;;;;;;;6.85;2.60;;;;;;;;;;5005244;28;20045;-47
2022/08/06 07:28:02;;;;;;;3.20;2.00;;;;;;;;;;5003646;28;20387;-48
2022/08/06 07:30:48;;;;;;;6.63;2.10;;;;;;;;;;5006025;28;20383;-49
2022/08/06 07:33:35;;;;;;;6.70;2.38;;;;;;;;;;5005588;28;20697;-49
2022/08/06 07:36:23;;;;;;;5.93;2.55;;;;;;;;;;5003135;28;20371;-49
2022/08/06 07:39:13;;;;;;;3.30;2.53;;;;;;;;;;5006122;28;20066;-47
2022/08/06 07:42:01;;;;;;;8.70;2.92;;;;;;;;;;5005696;28;20033;-47
2022/08/06 07:44:50;;;;;;;12.38;2.50;;;;;;;;;;5007283;28;20053;-51
2022/08/06 07:47:39;;;;;;;2.60;2.08;;;;;;;;;;5009130;28;20034;-50
2022/08/06 07:50:27;;;;;;;6.22;2.15;;;;;;;;;;5009831;28;20034;-46
2022/08/06 07:53:14;;;;;;;12.65;2.60;;;;;;;;;;5011238;28;20125;-48
2022/08/06 07:56:04;;;;;;;9.18;2.78;;;;;;;;;;5006844;28;20022;-53
2022/08/06 07:58:51;;;;;;;4.22;2.47;;;;;;;;;;5008155;28;20046;-48
2022/08/06 08:01:37;;;;;;;5.25;2.22;;;;;;;;;;5008256;28;20091;-49
2022/08/06 08:07:31;;;;;;;4.07;2.40;;;;;;;;;;5007614;28;20124;-50
2022/08/06 08:10:18;;;;;;;3.08;2.35;;;;;;;;;;5005003;28;20044;-49
2022/08/06 08:13:04;;;;;;;7.55;2.80;;;;;;;;;;5007366;28;20034;-47
2022/08/06 08:15:51;;;;;;;7.57;2.42;;;;;;;;;;5006198;28;20072;-47
2022/08/06 08:18:39;;;;;;;8.00;2.47;;;;;;;;;;5008665;28;20045;-47
2022/08/06 08:21:26;;;;;;;4.55;2.40;;;;;;;;;;5006403;28;20026;-51
2022/08/06 08:24:11;;;;;;;9.98;2.20;;;;;;;;;;5005723;28;20045;-49
2022/08/06 08:26:58;;;;;;;2.83;2.20;;;;;;;;;;5007626;28;20113;-47
2022/08/06 08:29:43;;;;;;;4.00;2.75;;;;;;;;;;5003253;28;20037;-47
2022/08/06 08:32:29;;;;;;;3.53;2.60;;;;;;;;;;5006584;28;20038;-49
2022/08/06 08:35:15;;;;;;;8.68;2.78;;;;;;;;;;5008118;28;20026;-47
2022/08/06 08:38:01;;;;;;;5.90;2.70;;;;;;;;;;5006834;28;20034;-47
2022/08/06 08:40:48;;;;;;;4.20;2.60;;;;;;;;;;5006971;28;20038;-51
2022/08/06 08:43:38;;;;;;;6.03;2.60;;;;;;;;;;5006058;28;20041;-48
2022/08/06 08:46:26;;;;;;;4.75;2.78;;;;;;;;;;5008721;28;20424;-49
2022/08/06 08:49:19;;;;;;;3.55;2.55;;;;;;;;;;5006773;28;20041;-49
2022/08/06 08:52:08;;;;;;;2.40;2.20;;;;;;;;;;5006846;28;20041;-49
2022/08/06 08:55:00;;;;;;;6.07;3.05;;;;;;;;;;5007173;28;20522;-50
2022/08/06 08:57:46;;;;;;;5.13;2.55;;;;;;;;;;5004694;28;20045;-49
2022/08/06 09:00:32;;;;;;;8.07;2.60;;;;;;;;;;5003109;28;20434;-47
2022/08/06 09:03:18;;;;;;;2.90;2.58;;;;;;;;;;5008531;28;20034;-48
2022/08/06 09:06:05;;;;;;;3.05;2.47;;;;;;;;;;5007244;28;20125;-52
2022/08/06 09:08:51;;;;;;;3.85;2.55;;;;;;;;;;5005492;28;20121;-48
2022/08/06 09:11:37;;;;;;;3.65;2.50;;;;;;;;;;5007948;28;20037;-49
2022/08/06 09:14:23;;;;;;;4.25;2.30;;;;;;;;;;5005773;28;20520;-48
2022/08/06 09:17:09;;;;;;;7.57;2.50;;;;;;;;;;5007256;28;20033;-48
2022/08/06 09:19:55;;;;;;;5.15;2.97;;;;;;;;;;5007540;28;20128;-47
2022/08/06 09:22:44;;;;;;;2.50;2.30;;;;;;;;;;5008661;28;20045;-52
2022/08/06 09:25:39;;;;;;;7.55;2.50;;;;;;;;;;5005546;28;20029;-47
2022/08/06 09:28:39;;;;;;;6.07;2.70;;;;;;;;;;5003193;28;20037;-50
2022/08/06 09:31:25;;;;;;;4.90;2.60;;;;;;;;;;5005695;28;20034;-51
2022/08/06 09:34:11;;;;;;;9.38;2.78;;;;;;;;;;5004186;28;20120;-53
2022/08/06 09:36:56;;;;;;;2.70;2.20;;;;;;;;;;5004718;28;20057;-48
2022/08/06 09:39:44;;;;;;;6.45;2.65;;;;;;;;;;5006131;28;20029;-49
2022/08/06 09:42:41;;;;;;;4.10;2.22;;;;;;;;;;5004925;28;20025;-48
2022/08/06 09:45:28;;;;;;;3.75;2.58;;;;;;;;;;5006465;28;20046;-48
2022/08/06 09:48:14;;;;;;;5.25;2.35;;;;;;;;;;5003420;28;20037;-48
2022/08/06 09:51:00;;;;;;;2.72;2.40;;;;;;;;;;5003123;28;20037;-47
2022/08/06 09:53:54;;;;;;;13.52;2.28;;;;;;;;;;5004919;28;20105;-48
2022/08/06 09:56:39;;;;;;;3.42;2.63;;;;;;;;;;5002027;28;20084;-48
2022/08/06 09:59:25;;;;;;;4.53;2.35;;;;;;;;;;5003169;28;20050;-48
2022/08/06 10:02:17;;;;;;;3.53;2.58;;;;;;;;;;5006777;28;20457;-49
2022/08/06 10:05:10;;;;;;;2.45;2.22;;;;;;;;;;5004511;28;20029;-51
2022/08/06 10:08:12;;;;;;;3.88;2.45;;;;;;;;;;5002858;28;20037;-48
2022/08/06 10:11:02;;;;;;;4.65;2.63;;;;;;;;;;5006349;28;20036;-48
2022/08/06 10:13:48;;;;;;;4.28;2.40;;;;;;;;;;5004137;28;20098;-47
2022/08/06 10:16:33;;;;;;;5.35;2.20;;;;;;;;;;5005725;28;20107;-50
2022/08/06 10:19:19;;;;;;;4.53;2.33;;;;;;;;;;5004737;28;20034;-50
2022/08/06 10:22:06;;;;;;;9.43;2.80;;;;;;;;;;5005273;28;20121;-51
2022/08/06 10:24:54;;;;;;;10.90;2.78;;;;;;;;;;5005078;28;20052;-49
2022/08/06 10:27:41;;;;;;;9.98;2.53;;;;;;;;;;5003964;28;20077;-47
2022/08/06 10:30:27;;;;;;;4.63;2.50;;;;;;;;;;5004638;28;20470;-51
2022/08/06 10:33:13;;;;;;;3.47;2.45;;;;;;;;;;5004973;28;21708;-48
2022/08/06 10:36:10;;;;;;;7.70;2.53;;;;;;;;;;5006123;28;20037;-47
2022/08/06 10:38:56;;;;;;;4.03;2.47;;;;;;;;;;5004111;28;20042;-49
2022/08/06 10:41:43;;;;;;;4.85;2.55;;;;;;;;;;5003952;28;20072;-47
2022/08/06 10:44:31;;;;;;;6.43;2.30;;;;;;;;;;5004129;28;20026;-48
2022/08/06 10:47:18;;;;;;;7.65;2.45;;;;;;;;;;5003651;28;20026;-48
2022/08/06 10:50:04;;;;;;;6.82;2.55;;;;;;;;;;5003001;28;20100;-50
2022/08/06 10:52:51;;;;;;;5.28;1.98;;;;;;;;;;5004227;28;20094;-49
2022/08/06 10:55:37;;;;;;;2.65;2.17;;;;;;;;;;5004561;28;20038;-48
2022/08/06 10:58:23;;;;;;;3.95;2.20;;;;;;;;;;5003418;28;20076;-48
2022/08/06 11:01:32;;;;;;;6.07;2.38;;;;;;;;;;5004340;28;20069;-49
2022/08/06 11:04:58;;;;;;;9.45;2.40;;;;;;;;;;4967224;28;20455;-48
2022/08/06 11:08:04;;;;;;;5.70;2.55;;;;;;;;;;4965044;28;20069;-47
2022/08/06 11:11:18;;;;;;;8.10;2.53;;;;;;;;;;4964687;28;20039;-48
2022/08/06 11:14:11;;;;;;;11.27;2.50;;;;;;;;;;4907315;29;20043;-48
2022/08/06 11:16:58;;;;;;;7.63;2.50;;;;;;;;;;4910184;29;20075;-49
2022/08/06 11:19:46;;;;;;;9.23;2.50;;;;;;;;;;4913029;29;20118;-48
2022/08/06 11:22:36;;;;;;;2.65;2.17;;;;;;;;;;4911881;29;20072;-50
2022/08/06 11:25:45;;;;;;;4.57;2.40;;;;;;;;;;4912217;29;20048;-50
2022/08/06 11:28:30;;;;;;;4.82;2.60;;;;;;;;;;4911905;29;20036;-49
2022/08/06 11:31:31;;;;;;;4.97;2.35;;;;;;;;;;4911225;29;20536;-53
2022/08/06 11:34:19;;;;;;;4.78;2.35;;;;;;;;;;4912768;29;20071;-50
2022/08/06 11:37:05;;;;;;;4.65;2.20;;;;;;;;;;4913472;29;20131;-48
2022/08/06 11:40:06;;;;;;;10.13;2.38;;;;;;;;;;4913219;29;20047;-49
2022/08/06 11:42:52;;;;;;;4.50;2.35;;;;;;;;;;4948721;28;20132;-48
2022/08/06 11:46:16;;;;;;;7.80;2.40;;;;;;;;;;4950837;28;20547;-48
2022/08/06 11:49:03;;;;;;;8.75;3.40;;;;;;;;;;4948122;28;20027;-48
2022/08/06 11:51:57;;;;;;;10.35;2.40;;;;;;;;;;5000024;28;20745;-48
2022/08/06 11:54:49;;;;;;;6.72;2.85;;;;;;;;;;5005316;28;20052;-49
2022/08/06 11:57:35;;;;;;;5.88;2.40;;;;;;;;;;5006700;28;20054;-48
2022/08/06 12:00:22;;;;;;;5.20;2.50;;;;;;;;;;5007527;28;20034;-50
2022/08/06 12:03:08;;;;;;;7.90;2.50;;;;;;;;;;5005657;28;20208;-48
2022/08/06 12:05:54;;;;;;;6.63;2.78;;;;;;;;;;5007438;28;20030;-49
2022/08/06 12:08:39;;;;;;;3.33;2.28;;;;;;;;;;5007293;28;20061;-48
2022/08/06 12:11:29;;;;;;;6.43;2.30;;;;;;;;;;5005561;28;20490;-49
2022/08/06 12:14:39;;;;;;;2.50;2.30;;;;;;;;;;5007396;28;20092;-53
2022/08/06 12:17:27;;;;;;;2.80;2.40;;;;;;;;;;5006007;28;20042;-51
2022/08/06 12:20:13;;;;;;;3.33;2.10;;;;;;;;;;5004640;28;20471;-48
2022/08/06 12:22:59;;;;;;;15.25;6.47;;;;;;;;;;5010191;28;20030;-52
2022/08/06 12:25:47;;;;;;;3.88;2.53;;;;;;;;;;5008164;28;20033;-48
2022/08/06 12:28:33;;;;;;;4.10;2.65;;;;;;;;;;5009046;28;20065;-48
2022/08/06 12:31:30;;;;;;;3.00;2.25;;;;;;;;;;5007917;28;20076;-51
2022/08/06 12:34:28;;;;;;;8.05;3.00;;;;;;;;;;5007339;28;20037;-51
2022/08/06 12:37:15;;;;;;;2.80;2.33;;;;;;;;;;5006893;28;20390;-52
2022/08/06 12:43:10;;;;;;;6.05;2.30;;;;;;;;;;5008156;28;20033;-51
2022/08/06 12:45:57;;;;;;;6.53;2.58;;;;;;;;;;5007528;28;20479;-52
2022/08/06 12:48:49;;;;;;;8.23;2.67;;;;;;;;;;5005488;28;20037;-51
2022/08/06 12:51:35;;;;;;;2.42;2.22;;;;;;;;;;5003365;28;20030;-53
2022/08/06 12:54:28;;;;;;;5.13;2.78;;;;;;;;;;5006659;28;20040;-51
2022/08/06 12:57:23;;;;;;;7.53;2.80;;;;;;;;;;5008065;28;20038;-50
2022/08/06 13:00:09;;;;;;;7.47;2.90;;;;;;;;;;5007602;28;20034;-50
2022/08/06 13:02:57;;;;;;;6.72;2.70;;;;;;;;;;5006097;28;20045;-51
2022/08/06 13:05:43;;;;;;;7.72;4.15;;;;;;;;;;5007266;28;20030;-48
2022/08/06 13:08:30;;;;;;;6.97;2.67;;;;;;;;;;5001720;28;20029;-51
2022/08/06 13:11:15;;;;;;;6.60;2.50;;;;;;;;;;5005930;28;20033;-51
2022/08/06 13:14:13;;;;;;;8.20;2.58;;;;;;;;;;5005901;28;20026;-53
2022/08/06 13:17:11;;;;;;;5.75;3.38;;;;;;;;;;4999851;28;20030;-55
2022/08/06 13:19:58;;;;;;;3.05;2.40;;;;;;;;;;5001839;28;20034;-50
2022/08/06 13:22:50;;;;;;;3.03;2.50;;;;;;;;;;5001102;28;20092;-52
2022/08/06 13:25:44;;;;;;;11.98;2.47;;;;;;;;;;5005557;28;20044;-55
2022/08/06 13:28:30;;;;;;;4.60;2.25;;;;;;;;;;5006430;28;20037;-51
2022/08/06 13:31:20;;;;;;;7.35;2.75;;;;;;;;;;5003205;28;20025;-47
2022/08/06 13:34:10;;;;;;;5.80;2.40;;;;;;;;;;4999836;28;20037;-46
2022/08/06 13:36:40;;;;;;;3.88;2.60;;;;;;;;;;5000182;28;20042;-48
2022/08/06 13:39:32;;;;;;;11.35;3.17;;;;;;;;;;4992799;28;20026;-43
2022/08/06 13:42:02;;;;;;;6.22;2.40;;;;;;;;;;5009982;28;20025;-47
2022/08/06 13:44:48;;;;;;;6.72;2.72;;;;;;;;;;5003708;28;20120;-46
2022/08/06 13:47:33;;;;;;;4.22;2.53;;;;;;;;;;4998978;28;20033;-47
2022/08/06 13:50:20;;;;;;;7.13;2.38;;;;;;;;;;4995460;28;20068;-48
2022/08/06 13:52:50;;;;;;;6.70;2.70;;;;;;;;;;5002195;28;20048;-46
2022/08/06 13:55:22;;;;;;;19.38;3.00;;;;;;;;;;4998416;28;20033;-48
2022/08/06 13:57:48;;;;;;;7.20;3.03;;;;;;;;;;4999892;28;20042;-47
2022/08/06 14:00:16;;;;;;;4.53;2.72;;;;;;;;;;5000843;28;20022;-46
2022/08/06 14:02:42;;;;;;;9.02;2.72;;;;;;;;;;5005768;28;20455;-48
2022/08/06 14:05:08;;;;;;;2.85;2.50;;;;;;;;;;5004687;28;20372;-50
2022/08/06 14:07:33;;;;;;;4.57;2.20;;;;;;;;;;5001224;28;20087;-47
2022/08/06 14:09:59;;;;;;;6.88;2.70;;;;;;;;;;5001886;28;20058;-46
2022/08/06 14:12:25;;;;;;;6.80;3.40;;;;;;;;;;5003709;28;20393;-47
2022/08/06 14:14:51;;;;;;;8.35;2.45;;;;;;;;;;5006546;28;20454;-48
2022/08/06 14:17:17;;;;;;;7.95;2.55;;;;;;;;;;5004234;28;20049;-46
2022/08/06 14:19:42;;;;;;;4.72;2.60;;;;;;;;;;5000257;28;20029;-46
2022/08/06 14:22:08;;;;;;;8.25;2.42;;;;;;;;;;5002827;28;20081;-46
2022/08/06 14:24:35;;;;;;;3.28;2.30;;;;;;;;;;5004782;28;20060;-47
2022/08/06 14:27:01;;;;;;;4.65;2.40;;;;;;;;;;4999348;28;20049;-47
2022/08/06 14:29:27;;;;;;;3.88;2.45;;;;;;;;;;5003767;28;20732;-46
2022/08/06 14:31:52;;;;;;;6.78;2.58;;;;;;;;;;5004932;28;20026;-45
2022/08/06 14:34:18;;;;;;;2.80;2.33;;;;;;;;;;5000316;28;20635;-46
2022/08/06 14:36:44;;;;;;;7.63;2.60;;;;;;;;;;5003392;28;20014;-47
2022/08/06 14:39:12;;;;;;;11.57;2.60;;;;;;;;;;5001410;28;20034;-46
2022/08/06 14:47:08;;;;;;;7.50;2.63;;;;;;;;;;4998716;28;20029;-46
2022/08/06 14:49:35;;;;;;;7.57;2.38;;;;;;;;;;5003251;28;20042;-48
2022/08/06 14:52:01;;;;;;;3.17;2.30;;;;;;;;;;5003709;28;20032;-47
2022/08/06 14:54:28;;;;;;;8.15;2.70;;;;;;;;;;5003092;28;20033;-50
2022/08/06 14:56:54;;;;;;;14.50;2.90;;;;;;;;;;5005737;28;20034;-46
2022/08/06 14:59:21;;;;;;;8.30;2.45;;;;;;;;;;5001085;28;20518;-49
2022/08/06 15:01:47;;;;;;;2.65;2.10;;;;;;;;;;4999552;28;20801;-46
2022/08/06 15:04:12;;;;;;;4.57;2.28;;;;;;;;;;4997579;28;20121;-46
2022/08/06 15:06:38;;;;;;;10.02;2.70;;;;;;;;;;5002867;28;20034;-46
2022/08/06 15:09:04;;;;;;;10.27;2.30;;;;;;;;;;5004028;28;20109;-47
2022/08/06 15:11:30;;;;;;;2.50;2.30;;;;;;;;;;5005882;28;20025;-46
2022/08/06 15:13:56;;;;;;;4.32;2.45;;;;;;;;;;5002388;28;20562;-48
2022/08/06 15:16:22;;;;;;;2.55;2.30;;;;;;;;;;4999623;28;20105;-46
2022/08/06 15:18:48;;;;;;;5.53;2.50;;;;;;;;;;5000598;28;20029;-47
2022/08/06 15:21:13;;;;;;;11.27;2.60;;;;;;;;;;4998828;28;20395;-48
2022/08/06 15:23:39;;;;;;;9.95;2.75;;;;;;;;;;5001195;28;20120;-47
2022/08/06 15:26:06;;;;;;;3.20;2.20;;;;;;;;;;5003342;28;20034;-48
2022/08/06 15:28:31;;;;;;;5.85;2.53;;;;;;;;;;5001920;28;20050;-49
2022/08/06 15:30:58;;;;;;;5.10;2.35;;;;;;;;;;4999820;28;20022;-48
2022/08/06 15:33:26;;;;;;;5.57;2.63;;;;;;;;;;5002577;28;20091;-46
2022/08/06 15:35:52;;;;;;;4.30;2.20;;;;;;;;;;5003867;28;20030;-48
2022/08/06 15:38:18;;;;;;;4.97;2.42;;;;;;;;;;5008007;28;20053;-47
2022/08/06 15:40:44;;;;;;;6.88;2.65;;;;;;;;;;4999437;28;20399;-51
2022/08/06 15:43:10;;;;;;;8.40;2.58;;;;;;;;;;5002506;28;20033;-46
2022/08/06 15:45:36;;;;;;;3.38;2.42;;;;;;;;;;4999443;28;20030;-46
2022/08/06 15:48:01;;;;;;;4.68;2.90;;;;;;;;;;5004930;28;20030;-46
2022/08/06 15:50:27;;;;;;;2.47;2.28;;;;;;;;;;4998599;28;20038;-46
2022/08/06 15:52:53;;;;;;;2.92;2.40;;;;;;;;;;5001663;28;20030;-47
2022/08/06 15:55:19;;;;;;;3.78;2.50;;;;;;;;;;5002701;28;20103;-48
2022/08/06 15:57:47;;;;;;;11.45;2.75;;;;;;;;;;5001187;28;20495;-47
2022/08/06 16:00:14;;;;;;;9.02;2.67;;;;;;;;;;5001361;28;20400;-47
2022/08/06 16:02:39;;;;;;;9.88;2.70;;;;;;;;;;4998611;28;20116;-46
2022/08/06 16:05:06;;;;;;;4.70;2.53;;;;;;;;;;5004363;28;20526;-47
2022/08/06 16:07:32;;;;;;;6.22;2.45;;;;;;;;;;5003842;28;20030;-48
2022/08/06 16:09:57;;;;;;;4.10;2.63;;;;;;;;;;5008365;28;20445;-47
2022/08/06 16:12:24;;;;;;;4.63;2.80;;;;;;;;;;5005560;28;20049;-53
2022/08/06 16:14:50;;;;;;;4.75;2.72;;;;;;;;;;5007185;28;20030;-46
2022/08/06 16:17:16;;;;;;;9.27;2.95;;;;;;;;;;5000855;28;20045;-46
2022/08/06 16:19:41;;;;;;;3.20;2.63;;;;;;;;;;5005763;28;20367;-47
2022/08/06 16:22:07;;;;;;;7.30;3.10;;;;;;;;;;5007466;28;20030;-48
2022/08/06 16:24:33;;;;;;;7.53;2.75;;;;;;;;;;5003385;28;20386;-52
2022/08/06 16:27:03;;;;;;;13.77;2.72;;;;;;;;;;5005942;28;20026;-51
2022/08/06 16:29:30;;;;;;;6.45;2.30;;;;;;;;;;5006557;28;20427;-48
2022/08/06 16:31:57;;;;;;;11.30;2.95;;;;;;;;;;5005520;28;20084;-48
2022/08/06 16:34:23;;;;;;;5.32;2.30;;;;;;;;;;5002303;28;20057;-46
2022/08/06 16:36:49;;;;;;;10.75;2.75;;;;;;;;;;5003941;28;20022;-49
2022/08/06 16:39:15;;;;;;;19.00;2.90;;;;;;;;;;5002821;28;20032;-46